createdAt,value
2018-03-16T00:00:17.434Z,73.80
2018-03-16T00:02:45.471Z,73.70
2018-03-16T00:05:12.926Z,73.70
2018-03-16T00:07:41.715Z,73.70
2018-03-16T00:10:09.166Z,74.00
2018-03-16T00:12:36.638Z,74.50
2018-03-16T00:15:04.790Z,74.70
2018-03-16T00:17:32.252Z,75.30
2018-03-16T00:19:59.703Z,75.60
2018-03-16T00:22:38.130Z,75.70
2018-03-16T00:25:06.095Z,76.00
2018-03-16T00:27:33.628Z,76.50
2018-03-16T00:30:02.128Z,76.70
2018-03-16T00:32:30.304Z,76.90
2018-03-16T00:34:57.765Z,77.00
2018-03-16T00:37:25.235Z,77.00
2018-03-16T00:39:52.686Z,77.70
2018-03-16T00:42:21.595Z,78.00
2018-03-16T00:44:49.366Z,78.50
2018-03-16T00:47:16.837Z,78.80
2018-03-16T00:49:45.481Z,79.10
2018-03-16T00:52:12.958Z,79.10
2018-03-16T00:54:40.583Z,79.10
2018-03-16T00:57:08.090Z,79.50
2018-03-16T00:59:37.289Z,79.40
2018-03-16T01:02:05.149Z,79.40
2018-03-16T01:04:32.695Z,79.50
2018-03-16T01:07:01.233Z,79.60
2018-03-16T01:09:29.410Z,79.70
2018-03-16T01:11:56.927Z,79.80
2018-03-16T01:14:24.455Z,79.70
2018-03-16T01:16:52.762Z,78.40
2018-03-16T01:19:21.485Z,79.10
2018-03-16T01:21:49.037Z,79.10
2018-03-16T01:24:18.020Z,79.30
2018-03-16T01:26:45.482Z,79.30
2018-03-16T01:29:14.648Z,79.10
2018-03-16T01:31:42.211Z,79.10
2018-03-16T01:34:10.801Z,79.20
2018-03-16T01:36:38.262Z,79.40
2018-03-16T01:39:05.717Z,79.70
2018-03-16T01:41:33.290Z,80.00
2018-03-16T01:44:00.747Z,80.00
2018-03-16T01:46:28.210Z,79.80
2018-03-16T01:48:55.658Z,79.90
2018-03-16T01:51:23.122Z,79.80
2018-03-16T01:53:51.183Z,80.00
2018-03-16T01:56:19.404Z,80.20
2018-03-16T01:58:47.565Z,80.10
2018-03-16T02:01:15.807Z,80.10
2018-03-16T02:03:43.258Z,80.10
2018-03-16T02:06:10.722Z,80.10
2018-03-16T02:08:38.179Z,79.90
2018-03-16T02:11:05.634Z,81.00
2018-03-16T02:13:33.088Z,80.50
2018-03-16T02:16:00.545Z,80.60
2018-03-16T02:18:28.002Z,80.70
2018-03-16T02:20:55.467Z,80.80
2018-03-16T02:23:23.576Z,81.00
2018-03-16T02:25:51.824Z,81.00
2018-03-16T02:28:19.582Z,80.90
2018-03-16T02:30:47.038Z,80.90
2018-03-16T02:33:14.485Z,81.00
2018-03-16T02:35:41.962Z,80.80
2018-03-16T02:38:09.943Z,81.00
2018-03-16T02:40:37.495Z,81.00
2018-03-16T02:43:04.950Z,81.10
2018-03-16T02:45:33.137Z,81.20
2018-03-16T02:48:01.318Z,81.10
2018-03-16T02:50:29.548Z,82.00
2018-03-16T02:52:57.005Z,81.20
2018-03-16T02:55:25.623Z,81.20
2018-03-16T02:57:53.697Z,80.90
2018-03-16T03:00:21.147Z,80.90
2018-03-16T03:02:48.624Z,80.60
2018-03-16T03:05:16.071Z,80.50
2018-03-16T03:07:43.549Z,81.10
2018-03-16T03:10:14.498Z,80.10
2018-03-16T03:12:44.142Z,80.10
2018-03-16T03:15:11.590Z,80.10
2018-03-16T03:17:39.398Z,80.30
2018-03-16T03:20:07.487Z,80.40
2018-03-16T03:22:35.644Z,80.80
2018-03-16T03:25:03.862Z,81.30
2018-03-16T03:27:31.382Z,81.30
2018-03-16T03:29:58.978Z,81.40
2018-03-16T03:32:26.443Z,81.50
2018-03-16T03:34:54.817Z,81.70
2018-03-16T03:37:24.022Z,81.90
2018-03-16T03:39:51.560Z,81.90
2018-03-16T03:42:20.226Z,82.00
2018-03-16T03:44:48.130Z,82.00
2018-03-16T03:47:15.585Z,81.90
2018-03-16T03:49:43.802Z,82.00
2018-03-16T03:52:11.286Z,81.90
2018-03-16T03:54:38.746Z,81.90
2018-03-16T03:57:07.098Z,82.20
2018-03-16T03:59:34.554Z,82.20
2018-03-16T04:02:02.761Z,82.20
2018-03-16T04:04:30.928Z,82.30
2018-03-16T04:06:58.491Z,82.30
2018-03-16T04:09:25.943Z,82.20
2018-03-16T04:11:54.227Z,82.50
2018-03-16T04:14:22.050Z,82.50
2018-03-16T04:16:49.546Z,82.30
2018-03-16T04:19:17.785Z,82.40
2018-03-16T04:21:47.369Z,82.50
2018-03-16T04:24:15.743Z,82.70
2018-03-16T04:26:43.971Z,82.70
2018-03-16T04:29:11.434Z,82.60
2018-03-16T04:31:38.905Z,83.30
2018-03-16T04:34:07.058Z,82.40
2018-03-16T04:36:36.596Z,83.00
2018-03-16T04:39:04.154Z,82.20
2018-03-16T04:41:31.702Z,81.90
2018-03-16T04:43:59.154Z,81.80
2018-03-16T04:46:27.695Z,81.70
2018-03-16T04:48:55.354Z,82.10
2018-03-16T04:51:23.890Z,82.30
2018-03-16T04:53:52.099Z,82.40
2018-03-16T04:56:21.455Z,82.50
2018-03-16T04:58:49.415Z,82.40
2018-03-16T05:01:16.880Z,82.50
2018-03-16T05:03:44.334Z,82.30
2018-03-16T05:06:11.821Z,82.30
2018-03-16T05:08:39.271Z,82.10
2018-03-16T05:11:06.982Z,82.00
2018-03-16T05:13:35.095Z,82.00
2018-03-16T05:16:02.562Z,81.90
2018-03-16T05:18:31.478Z,81.80
2018-03-16T05:21:00.419Z,81.60
2018-03-16T05:23:29.334Z,81.60
2018-03-16T05:25:57.626Z,81.40
2018-03-16T05:28:25.722Z,81.20
2018-03-16T05:30:53.945Z,81.20
2018-03-16T05:33:22.130Z,81.20
2018-03-16T05:35:49.605Z,81.10
2018-03-16T05:38:18.634Z,82.30
2018-03-16T05:40:46.877Z,82.00
2018-03-16T05:43:15.746Z,81.20
2018-03-16T05:45:43.203Z,80.40
2018-03-16T05:48:11.610Z,79.20
2018-03-16T05:50:39.291Z,78.90
2018-03-16T05:53:08.784Z,78.10
2018-03-16T05:55:36.246Z,78.00
2018-03-16T05:58:03.700Z,78.30
2018-03-16T06:00:31.254Z,78.00
2018-03-16T06:02:58.910Z,78.30
2018-03-16T06:05:27.633Z,78.20
2018-03-16T06:07:55.851Z,78.20
2018-03-16T06:10:23.337Z,78.20
2018-03-16T06:12:50.790Z,78.30
2018-03-16T06:15:18.351Z,78.10
2018-03-16T06:17:45.806Z,78.50
2018-03-16T06:20:13.272Z,78.60
2018-03-16T06:22:40.725Z,78.10
2018-03-16T06:25:09.006Z,77.50
2018-03-16T06:27:36.462Z,77.50
2018-03-16T06:30:03.923Z,77.50
2018-03-16T06:32:31.638Z,76.90
2018-03-16T06:34:59.098Z,76.90
2018-03-16T06:37:27.071Z,76.80
2018-03-16T06:39:55.279Z,76.60
2018-03-16T06:42:23.212Z,77.10
2018-03-16T06:44:50.849Z,75.90
2018-03-16T06:47:18.187Z,75.70
2018-03-16T06:49:45.646Z,76.30
2018-03-16T06:52:13.383Z,76.20
2018-03-16T06:54:40.916Z,75.80
2018-03-16T06:57:08.762Z,75.80
2018-03-16T06:59:37.407Z,75.90
2018-03-16T07:02:05.069Z,76.40
2018-03-16T07:04:32.828Z,75.60
2018-03-16T07:07:01.131Z,76.00
2018-03-16T07:09:28.595Z,74.70
2018-03-16T07:11:58.234Z,74.40
2018-03-16T07:14:25.727Z,74.40
2018-03-16T07:16:53.464Z,74.00
2018-03-16T07:19:20.926Z,74.10
2018-03-16T07:21:48.375Z,74.50
2018-03-16T07:24:16.663Z,74.30
2018-03-16T07:26:44.731Z,74.20
2018-03-16T07:29:12.803Z,73.90
2018-03-16T07:31:40.244Z,73.40
2018-03-16T07:34:07.702Z,72.50
2018-03-16T07:36:35.832Z,72.10
2018-03-16T07:39:03.289Z,71.50
2018-03-16T07:41:32.070Z,71.40
2018-03-16T07:44:00.331Z,71.40
2018-03-16T07:46:28.254Z,71.20
2018-03-16T07:48:56.729Z,70.60
2018-03-16T07:51:25.251Z,70.10
2018-03-16T07:53:53.270Z,70.10
2018-03-16T07:56:20.716Z,70.50
2018-03-16T07:58:48.174Z,70.10
2018-03-16T08:01:15.631Z,69.90
2018-03-16T08:03:43.090Z,68.90
2018-03-16T08:06:11.163Z,67.50
2018-03-16T08:08:38.968Z,68.40
2018-03-16T08:11:07.919Z,68.70
2018-03-16T08:13:35.370Z,67.00
2018-03-16T08:16:02.843Z,64.80
2018-03-16T08:18:31.239Z,63.90
2018-03-16T08:21:00.198Z,63.60
2018-03-16T08:23:27.659Z,63.60
2018-03-16T08:25:55.118Z,62.60
2018-03-16T08:28:23.195Z,62.80
2018-03-16T08:30:50.763Z,60.00
2018-03-16T08:33:18.236Z,57.40
2018-03-16T08:35:46.190Z,57.60
2018-03-16T08:38:13.762Z,56.60
2018-03-16T08:40:41.216Z,56.60
2018-03-16T08:43:10.337Z,57.30
2018-03-16T08:45:39.321Z,55.60
2018-03-16T08:48:08.903Z,56.60
2018-03-16T08:50:36.356Z,56.60
2018-03-16T08:53:03.932Z,57.50
2018-03-16T08:55:31.391Z,57.70
2018-03-16T08:57:58.843Z,58.40
2018-03-16T09:00:27.123Z,58.40
2018-03-16T09:02:55.398Z,56.40
2018-03-16T09:05:22.914Z,56.40
2018-03-16T09:07:50.413Z,56.50
2018-03-16T09:10:18.387Z,55.80
2018-03-16T09:12:45.858Z,54.60
2018-03-16T09:15:14.681Z,54.20
2018-03-16T09:17:42.130Z,53.90
2018-03-16T09:20:10.266Z,54.40
2018-03-16T09:22:38.379Z,54.30
2018-03-16T09:25:05.830Z,53.70
2018-03-16T09:27:34.752Z,53.90
2018-03-16T09:30:02.247Z,53.90
2018-03-16T09:32:30.320Z,53.40
2018-03-16T09:34:57.767Z,52.50
2018-03-16T09:37:25.402Z,50.90
2018-03-16T09:39:53.365Z,50.50
2018-03-16T09:42:21.673Z,51.00
2018-03-16T09:44:50.536Z,51.30
2018-03-16T09:47:18.095Z,50.00
2018-03-16T09:49:46.222Z,50.30
2018-03-16T09:52:13.778Z,49.90
2018-03-16T09:54:53.148Z,50.30
2018-03-16T09:57:22.264Z,50.50
2018-03-16T09:59:49.791Z,50.70
2018-03-16T10:02:18.798Z,49.20
2018-03-16T10:04:46.318Z,49.10
2018-03-16T10:07:13.779Z,49.50
2018-03-16T10:09:41.270Z,50.40
2018-03-16T10:12:09.514Z,48.70
2018-03-16T10:14:36.970Z,48.70
2018-03-16T10:17:04.427Z,49.00
2018-03-16T10:19:31.999Z,49.70
2018-03-16T10:21:59.450Z,49.00
2018-03-16T10:24:28.582Z,49.60
2018-03-16T10:26:56.044Z,49.70
2018-03-16T10:29:23.498Z,49.40
2018-03-16T10:31:51.773Z,48.70
2018-03-16T10:34:20.024Z,48.00
2018-03-16T10:36:47.478Z,48.00
2018-03-16T10:39:14.941Z,47.30
2018-03-16T10:41:42.446Z,47.70
2018-03-16T10:44:09.898Z,47.70
2018-03-16T10:46:38.311Z,48.60
2018-03-16T10:49:05.784Z,47.90
2018-03-16T10:51:34.227Z,48.90
2018-03-16T10:54:01.684Z,49.10
2018-03-16T10:56:29.150Z,48.50
2018-03-16T10:58:57.095Z,49.40
2018-03-16T11:01:26.046Z,49.30
2018-03-16T11:03:54.107Z,49.20
2018-03-16T11:06:27.614Z,49.60
2018-03-16T11:09:02.566Z,49.30
2018-03-16T11:11:31.295Z,51.50
2018-03-16T11:13:58.747Z,51.40
2018-03-16T11:16:26.782Z,50.70
2018-03-16T11:18:54.239Z,50.30
2018-03-16T11:21:21.687Z,49.10
2018-03-16T11:23:49.149Z,49.10
2018-03-16T11:26:16.625Z,50.60
2018-03-16T11:28:45.516Z,48.10
2018-03-16T11:31:18.402Z,47.40
2018-03-16T11:33:48.147Z,47.90
2018-03-16T11:36:16.215Z,47.80
2018-03-16T11:38:43.678Z,46.40
2018-03-16T11:41:11.790Z,47.20
2018-03-16T11:43:39.948Z,47.20
2018-03-16T11:46:07.411Z,45.80
2018-03-16T11:48:35.786Z,46.10
2018-03-16T11:51:03.587Z,46.30
2018-03-16T11:53:31.131Z,47.00
2018-03-16T11:55:58.585Z,46.80
2018-03-16T11:58:26.056Z,47.80
2018-03-16T12:00:53.526Z,49.30
2018-03-16T12:03:22.725Z,49.20
2018-03-16T12:05:50.946Z,49.20
2018-03-16T12:08:18.412Z,49.10
2018-03-16T12:10:45.892Z,50.40
2018-03-16T12:13:13.335Z,51.70
2018-03-16T12:15:40.810Z,52.40
2018-03-16T12:18:08.261Z,54.10
2018-03-16T12:20:35.710Z,53.90
2018-03-16T12:23:03.180Z,54.10
2018-03-16T12:25:30.653Z,54.50
2018-03-16T12:27:58.314Z,54.40
2018-03-16T12:30:26.480Z,54.60
2018-03-16T12:32:53.951Z,53.60
2018-03-16T12:35:21.409Z,53.50
2018-03-16T12:37:48.862Z,53.60
2018-03-16T12:40:16.327Z,55.90
2018-03-16T12:42:44.107Z,52.50
2018-03-16T12:45:13.111Z,52.40
2018-03-16T12:47:42.263Z,51.20
2018-03-16T12:50:10.045Z,51.40
2018-03-16T12:52:37.536Z,52.60
2018-03-16T12:55:06.906Z,50.00
2018-03-16T12:57:34.366Z,50.00
2018-03-16T13:00:02.391Z,50.00
2018-03-16T13:02:29.882Z,50.30
2018-03-16T13:04:58.122Z,50.70
2018-03-16T13:07:25.618Z,50.50
2018-03-16T13:09:53.079Z,50.20
2018-03-16T13:12:20.577Z,50.70
2018-03-16T13:14:48.126Z,50.90
2018-03-16T13:17:16.359Z,50.30
2018-03-16T13:19:43.815Z,50.20
2018-03-16T13:22:11.282Z,49.80
2018-03-16T13:24:38.734Z,48.80
2018-03-16T13:27:06.206Z,48.80
2018-03-16T13:29:33.660Z,48.90
2018-03-16T13:32:01.207Z,49.20
2018-03-16T13:34:28.659Z,48.30
2018-03-16T13:36:56.140Z,48.30
2018-03-16T13:39:23.594Z,48.30
2018-03-16T13:41:51.154Z,47.00
2018-03-16T13:44:18.608Z,46.80
2018-03-16T13:46:46.819Z,47.70
2018-03-16T13:49:15.849Z,48.00
2018-03-16T13:51:43.337Z,47.90
2018-03-16T13:54:10.782Z,47.10
2018-03-16T13:56:38.255Z,46.80
2018-03-16T13:59:05.703Z,48.10
2018-03-16T14:01:33.172Z,48.30
2018-03-16T14:04:00.950Z,48.50
2018-03-16T14:06:28.503Z,48.50
2018-03-16T14:08:56.675Z,49.00
2018-03-16T14:11:24.690Z,49.20
2018-03-16T14:13:52.147Z,48.80
2018-03-16T14:16:19.618Z,47.90
2018-03-16T14:18:47.890Z,48.30
2018-03-16T14:21:15.351Z,49.10
2018-03-16T14:23:42.810Z,49.30
2018-03-16T14:26:10.317Z,49.20
2018-03-16T14:28:37.771Z,50.10
2018-03-16T14:31:05.289Z,50.10
2018-03-16T14:33:33.322Z,48.30
2018-03-16T14:36:01.550Z,47.90
2018-03-16T14:38:28.998Z,47.70
2018-03-16T14:40:57.419Z,48.70
2018-03-16T14:43:25.102Z,48.30
2018-03-16T14:45:53.355Z,48.70
2018-03-16T14:48:21.513Z,48.60
2018-03-16T14:50:49.743Z,47.50
2018-03-16T14:53:18.324Z,46.60
2018-03-16T14:55:46.559Z,44.90
2018-03-16T14:58:14.454Z,44.90
2018-03-16T15:00:42.686Z,44.20
2018-03-16T15:03:10.230Z,43.60
2018-03-16T15:05:37.741Z,43.10
2018-03-16T15:08:05.190Z,42.60
2018-03-16T15:10:32.748Z,43.50
2018-03-16T15:13:00.418Z,44.00
2018-03-16T15:15:27.890Z,44.00
2018-03-16T15:17:56.778Z,45.30
2018-03-16T15:20:24.689Z,45.20
2018-03-16T15:22:52.126Z,43.40
2018-03-16T15:25:19.594Z,45.00
2018-03-16T15:27:47.841Z,48.60
2018-03-16T15:30:15.299Z,51.20
2018-03-16T15:32:43.851Z,53.30
2018-03-16T15:35:11.311Z,53.30
2018-03-16T15:37:40.871Z,54.30
2018-03-16T15:40:09.019Z,54.60
2018-03-16T15:42:36.686Z,55.30
2018-03-16T15:45:05.495Z,57.60
2018-03-16T15:47:33.703Z,58.10
2018-03-16T15:50:01.187Z,58.10
2018-03-16T15:52:28.611Z,59.00
2018-03-16T15:54:56.067Z,58.90
2018-03-16T15:57:24.400Z,58.80
2018-03-16T15:59:52.148Z,59.20
2018-03-16T16:02:19.607Z,58.90
2018-03-16T16:04:47.264Z,58.90
2018-03-16T16:07:15.019Z,59.10
2018-03-16T16:09:42.475Z,57.70
2018-03-16T16:12:10.211Z,57.60
2018-03-16T16:14:37.680Z,57.30
2018-03-16T16:17:05.140Z,58.10
2018-03-16T16:19:32.858Z,57.60
2018-03-16T16:22:01.661Z,59.40
2018-03-16T16:24:29.122Z,59.40
2018-03-16T16:26:56.676Z,59.20
2018-03-16T16:29:25.946Z,59.80
2018-03-16T16:31:53.406Z,59.80
2018-03-16T16:34:20.968Z,60.20
2018-03-16T16:36:49.234Z,60.70
2018-03-16T16:39:17.300Z,60.30
2018-03-16T16:41:44.748Z,61.00
2018-03-16T16:44:12.227Z,60.50
2018-03-16T16:46:40.116Z,60.50
2018-03-16T16:49:08.375Z,60.70
2018-03-16T16:51:35.831Z,60.60
2018-03-16T16:54:03.641Z,60.80
2018-03-16T16:56:31.095Z,61.40
2018-03-16T16:58:58.546Z,61.00
2018-03-16T17:01:26.816Z,60.90
2018-03-16T17:03:54.598Z,60.90
2018-03-16T17:06:22.742Z,60.30
2018-03-16T17:08:51.021Z,60.50
2018-03-16T17:11:18.569Z,61.10
2018-03-16T17:13:46.727Z,61.00
2018-03-16T17:16:14.183Z,60.50
2018-03-16T17:18:42.130Z,60.80
2018-03-16T17:21:09.937Z,61.10
2018-03-16T17:23:37.399Z,61.50
2018-03-16T17:26:04.854Z,61.70
2018-03-16T17:28:32.843Z,61.90
2018-03-16T17:31:01.608Z,62.10
2018-03-16T17:33:29.207Z,62.10
2018-03-16T17:35:56.729Z,62.10
2018-03-16T17:38:24.663Z,62.50
2018-03-16T17:40:52.123Z,62.90
2018-03-16T17:43:20.380Z,63.50
2018-03-16T17:45:47.843Z,64.00
2018-03-16T17:48:16.206Z,64.30
2018-03-16T17:50:43.743Z,64.80
2018-03-16T17:53:11.208Z,64.90
2018-03-16T17:55:40.285Z,65.70
2018-03-16T17:58:08.444Z,65.60
2018-03-16T18:00:35.930Z,66.10
2018-03-16T18:03:03.384Z,66.60
2018-03-16T18:05:30.839Z,67.30
2018-03-16T18:07:58.298Z,67.80
2018-03-16T18:10:25.758Z,68.40
2018-03-16T18:12:53.239Z,68.60
2018-03-16T18:15:21.593Z,69.20
2018-03-16T18:17:49.146Z,69.20
2018-03-16T18:20:17.671Z,69.80
2018-03-16T18:22:45.747Z,70.00
2018-03-16T18:25:13.211Z,70.00
2018-03-16T18:27:40.658Z,70.20
2018-03-16T18:30:08.132Z,70.40
2018-03-16T18:32:35.578Z,70.40
2018-03-16T18:35:03.049Z,70.40
2018-03-16T18:37:30.499Z,70.50
2018-03-16T18:39:58.684Z,70.60
2018-03-16T18:42:26.596Z,70.90
2018-03-16T18:44:54.874Z,71.20
2018-03-16T18:47:22.923Z,72.70
2018-03-16T18:49:50.386Z,72.20
2018-03-16T18:52:18.537Z,72.40
2018-03-16T18:54:46.444Z,72.20
2018-03-16T18:57:14.748Z,71.90
2018-03-16T18:59:42.167Z,71.60
2018-03-16T19:02:09.623Z,71.40
2018-03-16T19:04:37.815Z,71.40
2018-03-16T19:07:05.381Z,71.60
2018-03-16T19:09:32.850Z,72.00
2018-03-16T19:12:01.122Z,72.40
2018-03-16T19:14:28.667Z,72.30
2018-03-16T19:16:56.960Z,72.60
2018-03-16T19:19:24.510Z,72.80
2018-03-16T19:21:51.971Z,72.90
2018-03-16T19:24:19.452Z,73.80
2018-03-16T19:26:47.690Z,73.70
2018-03-16T19:29:15.158Z,73.70
2018-03-16T19:31:42.620Z,73.80
2018-03-16T19:34:10.382Z,73.90
2018-03-16T19:36:37.839Z,73.70
2018-03-16T19:39:05.371Z,73.60
2018-03-16T19:41:32.838Z,74.00
2018-03-16T19:44:00.387Z,74.00
2018-03-16T19:46:27.849Z,74.60
2018-03-16T19:48:55.311Z,74.30
2018-03-16T19:51:22.778Z,74.50
2018-03-16T19:53:50.239Z,75.00
2018-03-16T19:56:17.868Z,74.70
2018-03-16T19:58:45.333Z,74.80
2018-03-16T20:01:12.799Z,75.20
2018-03-16T20:03:40.650Z,75.10
2018-03-16T20:06:08.100Z,75.00
2018-03-16T20:08:35.601Z,75.20
2018-03-16T20:11:04.047Z,75.70
2018-03-16T20:13:31.499Z,75.50
2018-03-16T20:15:59.475Z,75.70
2018-03-16T20:18:27.439Z,75.80
2018-03-16T20:20:55.211Z,75.50
2018-03-16T20:23:22.682Z,75.60
2018-03-16T20:25:50.154Z,75.70
2018-03-16T20:28:18.379Z,76.40
2018-03-16T20:30:47.091Z,76.60
2018-03-16T20:33:14.564Z,76.50
2018-03-16T20:35:42.675Z,76.90
2018-03-16T20:38:10.954Z,77.50
2018-03-16T20:40:38.408Z,76.70
2018-03-16T20:43:05.960Z,76.90
2018-03-16T20:45:34.953Z,77.20
2018-03-16T20:48:03.179Z,77.20
2018-03-16T20:50:30.635Z,77.20
2018-03-16T20:52:58.146Z,77.10
2018-03-16T20:55:25.597Z,77.40
2018-03-16T20:57:53.374Z,77.00
2018-03-16T21:00:20.834Z,76.60
2018-03-16T21:02:48.447Z,76.60
2018-03-16T21:05:16.619Z,76.80
2018-03-16T21:07:44.743Z,77.20
2018-03-16T21:10:12.510Z,76.90
2018-03-16T21:12:41.959Z,77.20
2018-03-16T21:15:09.412Z,77.10
2018-03-16T21:17:37.563Z,77.30
2018-03-16T21:20:06.622Z,77.40
2018-03-16T21:22:34.083Z,77.30
2018-03-16T21:25:01.540Z,77.50
2018-03-16T21:27:29.327Z,77.50
2018-03-16T21:29:56.781Z,76.70
2018-03-16T21:32:24.247Z,77.10
2018-03-16T21:34:52.568Z,77.10
2018-03-16T21:37:20.027Z,77.10
2018-03-16T21:39:47.496Z,77.70
2018-03-16T21:42:14.974Z,78.00
2018-03-16T21:44:42.453Z,78.60
2018-03-16T21:47:09.920Z,78.20
2018-03-16T21:49:38.139Z,77.90
2018-03-16T21:52:05.603Z,77.90
2018-03-16T21:54:33.089Z,77.80
2018-03-16T21:57:00.595Z,77.50
2018-03-16T21:59:28.171Z,77.10
2018-03-16T22:01:55.696Z,77.60
2018-03-16T22:04:23.915Z,78.40
2018-03-16T22:06:51.467Z,78.30
2018-03-16T22:09:18.932Z,78.50
2018-03-16T22:11:46.486Z,78.40
2018-03-16T22:14:13.985Z,78.10
2018-03-16T22:16:42.907Z,77.40
2018-03-16T22:19:11.122Z,77.60
2018-03-16T22:21:38.584Z,77.40
2018-03-16T22:24:06.055Z,77.30
2018-03-16T22:26:33.541Z,77.50
2018-03-16T22:29:01.770Z,78.40
2018-03-16T22:31:29.224Z,77.80
2018-03-16T22:33:56.719Z,77.60
2018-03-16T22:36:24.944Z,77.20
2018-03-16T22:38:52.414Z,77.20
2018-03-16T22:41:20.555Z,77.30
2018-03-16T22:43:48.797Z,76.80
2018-03-16T22:46:16.263Z,76.80
2018-03-16T22:48:43.735Z,76.90
2018-03-16T22:51:11.971Z,77.10
2018-03-16T22:53:39.450Z,77.00
2018-03-16T22:56:06.911Z,77.10
2018-03-16T22:58:34.379Z,77.00
2018-03-16T23:01:01.841Z,77.50
2018-03-16T23:03:30.102Z,78.30
2018-03-16T23:05:57.564Z,78.30
2018-03-16T23:08:25.035Z,78.40
2018-03-16T23:10:52.499Z,78.80
2018-03-16T23:13:19.971Z,78.50
2018-03-16T23:15:47.457Z,78.50
2018-03-16T23:18:14.947Z,79.20
2018-03-16T23:20:42.447Z,78.80
2018-03-16T23:23:10.180Z,78.90
2018-03-16T23:25:37.665Z,79.40
2018-03-16T23:28:05.921Z,79.90
2018-03-16T23:30:33.421Z,79.80
2018-03-16T23:33:00.940Z,79.70
2018-03-16T23:35:28.618Z,79.80
2018-03-16T23:37:56.856Z,80.10
2018-03-16T23:40:25.591Z,80.10
2018-03-16T23:42:55.283Z,80.50
2018-03-16T23:45:24.175Z,80.80
2018-03-16T23:47:51.642Z,80.80
2018-03-16T23:50:19.870Z,80.30
2018-03-16T23:52:48.811Z,80.20
2018-03-16T23:55:18.527Z,80.10
2018-03-16T23:57:48.076Z,80.00
